This is the latest recevied weather packets stored in our database for station/object EA1GLE. If no packets are shown the sender has not sent any weather packets the latest 10 day(s).
| Time | Temp. | Humidity | Pressure | Rain* | Wind** | Luminosity | Snow |
|---|---|---|---|---|---|---|---|
| 1777859644 | 8.89° C | 99% | 1014.6 hPa | 0 mm | - | 0 W/m² | - |
| 1777858023 | 8.89° C | 99% | 1014.6 hPa | 0 mm | - | 0 W/m² | - |
| 1777856179 | 8.89° C | 99% | 1014.7 hPa | 0 mm | - | 0 W/m² | - |
| 1777854423 | 8.89° C | 99% | 1014.8 hPa | 0 mm | - | 0 W/m² | - |
| 1777853343 | 8.33° C | 99% | 1014.6 hPa | 0 mm | - | 0 W/m² | - |
| 1777851904 | 8.33° C | 99% | 1014.8 hPa | 0 mm | - | 0 W/m² | - |
| 1777847359 | 8.33° C | 99% | 1014.7 hPa | 0 mm | - | 0 W/m² | - |
| 1777844703 | 9.44° C | 99% | 1014.9 hPa | 0 mm | - | 0 W/m² | - |
| 1777838043 | 10.56° C | 98% | 1013.8 hPa | 0.25 mm | - | 0 W/m² | - |
| 1777837503 | 11.11° C | 98% | 1013.7 hPa | 0.25 mm | - | 0 W/m² | - |
| 1777836423 | 11.11° C | 97% | 1013.6 hPa | 3.3 mm | - | 0 W/m² | - |
| 1777835343 | 11.11° C | 96% | 1013.7 hPa | 3.05 mm | - | 0 W/m² | - |
| 1777831337 | 13.89° C | 88% | 1013.1 hPa | 0.25 mm | - | 32 W/m² | - |
| 1777825218 | 11.67° C | 96% | 1013.5 hPa | 1.27 mm | - | 436 W/m² | - |
| 1777824544 | 11.67° C | 96% | 1013.6 hPa | 2.54 mm | - | 147 W/m² | - |
| 1777820404 | 15° C | 71% | 1013.2 hPa | 0 mm | - | 89 W/m² | - |
| 1777812843 | 15.56° C | 76% | 1014.3 hPa | 0 mm | - | 248 W/m² | - |
| 1777811764 | 16.11° C | 77% | 1014.4 hPa | 0 mm | - | 504 W/m² | - |
| 1777808703 | 13.89° C | 83% | 1015.6 hPa | 0 mm | - | 227 W/m² | - |
| 1777796958 | 11.67° C | 99% | 1015.7 hPa | 0 mm | - | 142 W/m² | - |
| 1777794843 | 11.11° C | 99% | 1015.7 hPa | 0 mm | - | 95 W/m² | - |
| 1777787643 | 8.33° C | 99% | 1015.8 hPa | 0 mm | - | 23 W/m² | - |
| 1777786563 | 8.33° C | 99% | 1015.8 hPa | 0 mm | - | 9 W/m² | - |
| 1777783504 | 8.89° C | 99% | 1015.6 hPa | 0 mm | - | 0 W/m² | - |
| 1777781883 | 9.44° C | 99% | 1015.9 hPa | 0 mm | - | 0 W/m² | - |
* Rain latest hour (hover to see other rain measurements)
** Current wind speed in m/s (hover to see current wind gust speed)